Flight Track Log - Related Links

Times and Time Zones

All times are in EDT time to prevent confusion due to time zone crossing. See the JAL97 flight status page for this flight to view local times or setup timezone preferences in your user account.

Time Position Orientation Groundspeed Altitude Reporting Facility
EDT Latitude Longitude Course Direction KTS MPH feet Rate Location/Type
Wed 08:15:30 PM 35.5436 139.8256 43° Northeast 162 186 800  Level FlightAware ADS-B (EGKA / ESH)
Wed 08:15:46 PM 35.5496 139.8372 72° East 164 189 1,500 2,710 Climbing FlightAware ADS-B (EGKA / ESH)
Wed 08:16:01 PM 35.5496 139.8517 104° East 164 189 2,200 2,200 Climbing FlightAware ADS-B (EGKA / ESH)
Wed 08:16:16 PM 35.5458 139.8651 111° Southeast 176 203 2,600 1,655 Climbing FlightAware ADS-B (EGKA / ESH)
Wed 08:16:30 PM 35.5396 139.8784 129° Southeast 187 215 3,000 1,862 Climbing FlightAware ADS-B (EGKA / ESH)
Wed 08:16:45 PM 35.5288 139.8864 161° South 193 222 3,500 2,182 Climbing FlightAware ADS-B (EGKA / ESH)
Wed 08:16:52 PM 35.5219 139.8878 174° South 200 230 3,800 1,846 Climbing FlightAware ADS-B (RJTF)
Wed 08:16:58 PM 35.5172 139.8876 184° South 206 237 3,900 1,333 Climbing FlightAware ADS-B (RJTF)
Wed 08:17:01 PM 35.5137 139.8869 188° South 211 243 4,000 1,500 Climbing FlightAware ADS-B (EGKA / ESH)
Wed 08:17:02 PM 35.5126 139.8866 192° South 214 246 4,000 857 Level FlightAware ADS-B (RJTF)
Wed 08:17:08 PM 35.5080 139.8848 199° South 220 253 4,100 1,091 Climbing FlightAware ADS-B (RJTF)
Wed 08:17:13 PM 35.5029 139.8815 210° Southwest 228 262 4,200 1,500 Climbing FlightAware ADS-B (RJTF)
Wed 08:17:16 PM 35.5002 139.8793 215° Southwest 234 269 4,300 1,500 Climbing FlightAware ADS-B (EGKA / ESH)
Wed 08:17:17 PM 35.4987 139.8779 217° Southwest 235 270 4,300 2,000 Level FlightAware ADS-B (RJTF)
Wed 08:17:22 PM 35.4942 139.8727 224° Southwest 240 276 4,500 2,400 Climbing FlightAware ADS-B (RJTF)
Wed 08:17:27 PM 35.4913 139.8688 229° Southwest 246 283 4,700 2,000 Climbing FlightAware ADS-B (RJTF)
Wed 08:17:31 PM 35.4889 139.8654 230° Southwest 251 289 4,800 2,000 Climbing FlightAware ADS-B (EGKA / ESH)
Wed 08:17:42 PM 35.4797 139.8506 235° Southwest 262 302 5,200 3,333 Climbing FlightAware ADS-B (RJTF)
Wed 08:17:49 PM 35.4711 139.8352 241° Southwest 263 303 5,800 3,000 Climbing FlightAware ADS-B
Wed 08:17:58 PM 35.4692 139.8313 241° Southwest 266 306 6,000 2,609 Climbing FlightAware ADS-B (RJTF)
Wed 08:18:12 PM 35.4618 139.8109 248° West 270 311 6,800 3,176 Climbing FlightAware ADS-B (RJTF)
Wed 08:18:15 PM 35.4608 139.8081 248° West 273 314 6,900 3,200 Climbing FlightAware ADS-B (EGKA / ESH)
Wed 08:18:27 PM 35.4541 139.7894 246° West 274 315 7,600 3,600 Climbing FlightAware ADS-B (RJTF)
Wed 08:18:30 PM 35.4525 139.7851 245° Southwest 275 316 7,800 3,200 Climbing FlightAware ADS-B (EGKA / ESH)
Wed 08:18:42 PM 35.4460 139.7681 246° West 278 320 8,400 3,200 Climbing FlightAware ADS-B (RJTF)
Wed 08:18:45 PM 35.4444 139.7639 246° West 279 321 8,600 3,200 Climbing FlightAware ADS-B (EGKA / ESH)
Wed 08:18:57 PM 35.4385 139.7480 246° West 280 322 9,200 3,200 Climbing FlightAware ADS-B (RJTF)
Wed 08:19:00 PM 35.4374 139.7451 246° West 280 322 9,400 3,400 Climbing FlightAware ADS-B (EGKA / ESH)
Wed 08:19:27 PM 35.4220 139.7042 245° Southwest 276 318 10,900 3,097 Climbing FlightAware ADS-B (RJTF)
Wed 08:19:31 PM 35.4201 139.6992 245° Southwest 281 323 11,000 1,200 Climbing FlightAware ADS-B (EGKA / ESH)
Wed 08:19:57 PM 35.4048 139.6594 246° West 315 362 11,500 1,200 Climbing FlightAware ADS-B (RJTF)
Wed 08:20:01 PM 35.4023 139.6526 245° Southwest 320 368 11,600 2,308 Climbing FlightAware ADS-B (EGKA / ESH)
Wed 08:20:10 PM 35.3926 139.6272 246° West 330 380 12,000 1,778 Climbing FlightAware ADS-B
Wed 08:20:28 PM 35.3850 139.6073 245° Southwest 341 392 12,400 2,167 Climbing FlightAware ADS-B (RJTF)
Wed 08:20:46 PM 35.3727 139.5750 245° Southwest 345 397 13,300 3,103 Climbing FlightAware ADS-B (EGKA / ESH)
Wed 08:20:57 PM 35.3647 139.5537 246° West 344 396 13,900 3,200 Climbing FlightAware ADS-B (RJTF)
Wed 08:21:16 PM 35.3520 139.5200 245° Southwest 347 399 14,900 2,786 Climbing FlightAware ADS-B (EGKA / ESH)
Wed 08:21:25 PM 35.3469 139.5066 245° Southwest 351 404 15,200 2,400 Climbing FlightAware ADS-B (RJTF)
Wed 08:22:01 PM 35.3213 139.4392 245° Southwest 361 415 16,700 3,000 Climbing FlightAware ADS-B (EGKA / ESH)
Wed 08:22:45 PM 35.2909 139.3595 245° Southwest 354 407 19,200 2,800 Climbing FlightAware ADS-B (EGKA / ESH)
Wed 08:23:31 PM 35.2586 139.2754 245° Southwest 365 420 20,900 2,169 Climbing FlightAware ADS-B (EGKA / ESH)
Wed 08:24:08 PM 35.2318 139.2055 245° Southwest 376 433 22,200 2,026 Climbing FlightAware ADS-B (EGKA / ESH)
Wed 08:24:48 PM 35.2011 139.1256 245° Southwest 389 448 23,500 2,049 Climbing FlightAware ADS-B (EGKA / ESH)
Wed 08:25:30 PM 35.1648 139.0316 246° West 393 452 25,000 1,829 Climbing FlightAware ADS-B
Wed 08:26:10 PM 35.1332 138.9498 246° West 406 467 26,000 1,636 Climbing FlightAware ADS-B
Wed 08:26:47 PM 35.1036 138.8734 245° Southwest 417 480 27,100 1,714 Climbing FlightAware ADS-B
Wed 08:27:27 PM 35.0707 138.7884 247° West 417 480 28,200 1,643 Climbing FlightAware ADS-B
Wed 08:28:11 PM 35.0466 138.6866 258° West 426 490 29,400 1,590 Climbing FlightAware ADS-B
Wed 08:28:50 PM 35.0320 138.5936 261° West 431 496 30,400 1,697 Climbing FlightAware ADS-B
Wed 08:29:50 PM 35.0098 138.4474 259° West 433 498 32,200 1,842 Climbing FlightAware ADS-B
Wed 08:30:31 PM 34.9950 138.3523 259° West 424 488 33,500 1,604 Climbing FlightAware ADS-B
Wed 08:31:31 PM 34.9725 138.2105 259° West 425 489 34,900 1,260 Climbing FlightAware ADS-B
Wed 08:32:11 PM 34.9580 138.1198 259° West 428 493 35,600 835 Climbing FlightAware ADS-B
Wed 08:32:50 PM 34.9428 138.0249 259° West 433 498 36,000 320 Climbing FlightAware ADS-B
Wed 08:33:26 PM 34.9297 137.9425 259° West 434 499 36,000  Level FlightAware ADS-B
Wed 08:34:10 PM 34.9120 137.8338 259° West 434 499 36,000  Level FlightAware ADS-B
Wed 08:34:50 PM 34.8964 137.7381 259° West 434 499 36,000  Level FlightAware ADS-B
Wed 08:35:42 PM 34.8714 137.6155 248° West 433 498 36,000  Level FlightAware ADS-B
Wed 08:36:11 PM 34.8427 137.5538 237° Southwest 435 501 36,000  Level FlightAware ADS-B
Wed 08:36:51 PM 34.7965 137.4756 234° Southwest 435 501 36,000  Level FlightAware ADS-B
Wed 08:37:23 PM 34.7581 137.4120 234° Southwest 433 498 36,000  Level FlightAware ADS-B
Wed 08:38:26 PM 34.6842 137.2902 234° Southwest 433 498 36,000  Level FlightAware ADS-B
Wed 08:39:11 PM 34.6297 137.2003 234° Southwest 433 498 36,000  Level FlightAware ADS-B
Wed 08:40:12 PM 34.5576 137.0821 234° Southwest 433 498 36,000  Level FlightAware ADS-B
Wed 08:40:45 PM 34.5198 137.0202 234° Southwest 434 499 36,000  Level FlightAware ADS-B
Wed 08:41:15 PM 34.4828 136.9594 234° Southwest 434 499 36,000  Level FlightAware ADS-B
Wed 08:42:43 PM 34.3781 136.7885 233° Southwest 436 502 36,000  Level FlightAware ADS-B
Wed 08:43:41 PM 34.3071 136.6735 233° Southwest 437 503 36,000  Level FlightAware ADS-B
Wed 08:46:00 PM 34.1665 136.3929 239° Southwest  Level Estimated
Wed 08:47:00 PM 34.1056 136.2721 239° Southwest  Level Estimated
Wed 08:48:00 PM 34.0445 136.1514 239° Southwest  Level Estimated
Wed 08:49:00 PM 33.9834 136.0309 239° Southwest  Level Estimated
Wed 08:50:00 PM 33.9221 135.9106 238° Southwest  Level Estimated
Wed 08:51:00 PM 33.8607 135.7905 238° Southwest  Level Estimated
Wed 08:52:00 PM 33.7992 135.6706 238° Southwest  Level Estimated
Wed 08:53:00 PM 33.7376 135.5508 238° Southwest  Level Estimated
Wed 08:54:00 PM 33.6759 135.4312 238° Southwest  Level Estimated
Wed 08:55:00 PM 33.6140 135.3117 238° Southwest  Level Estimated
Wed 08:56:00 PM 33.5521 135.1925 238° Southwest  Level Estimated
Wed 08:57:00 PM 33.4900 135.0734 238° Southwest  Level Estimated
Wed 08:58:00 PM 33.4278 134.9544 238° Southwest  Level Estimated
Wed 08:59:00 PM 33.3651 134.8349 238° Southwest  Level Estimated
Wed 09:00:00 PM 33.3023 134.7156 238° Southwest  Level Estimated
Wed 09:01:00 PM 33.2393 134.5965 238° Southwest  Level Estimated
Wed 09:02:00 PM 33.1763 134.4775 238° Southwest  Level Estimated
Wed 09:03:00 PM 33.1132 134.3587 238° Southwest  Level Estimated
Wed 09:04:00 PM 33.0499 134.2400 238° Southwest  Level Estimated
Wed 09:05:00 PM 32.9865 134.1216 237° Southwest  Level Estimated
Wed 09:06:00 PM 32.9230 134.0033 237° Southwest  Level Estimated
Wed 09:07:00 PM 32.8595 133.8851 237° Southwest  Level Estimated
Wed 09:08:00 PM 32.7957 133.7672 237° Southwest  Level Estimated
Wed 09:09:00 PM 32.7319 133.6494 237° Southwest  Level Estimated
Wed 09:10:00 PM 32.6680 133.5318 237° Southwest  Level Estimated
Wed 09:11:00 PM 32.6040 133.4143 237° Southwest  Level Estimated
Wed 09:12:00 PM 32.5398 133.2970 237° Southwest  Level Estimated
Wed 09:13:00 PM 32.4756 133.1799 237° Southwest  Level Estimated
Wed 09:14:00 PM 32.4112 133.0629 237° Southwest  Level Estimated
Wed 09:15:00 PM 32.3467 132.9462 237° Southwest  Level Estimated
Wed 09:16:00 PM 32.2821 132.8295 237° Southwest  Level Estimated
Wed 09:17:00 PM 32.2174 132.7131 237° Southwest  Level Estimated
Wed 09:18:00 PM 32.1527 132.5968 237° Southwest  Level Estimated
Wed 09:19:00 PM 32.0878 132.4807 237° Southwest  Level Estimated
Wed 09:20:00 PM 32.0228 132.3647 237° Southwest  Level Estimated
Wed 09:21:00 PM 31.9576 132.2489 236° Southwest  Level Estimated
Wed 09:22:00 PM 31.8924 132.1333 236° Southwest  Level Estimated
Wed 09:23:00 PM 31.8271 132.0179 236° Southwest  Level Estimated
Wed 09:24:00 PM 31.7617 131.9026 236° Southwest  Level Estimated
Wed 09:25:00 PM 31.6961 131.7874 236° Southwest  Level Estimated
Wed 09:26:00 PM 31.6305 131.6724 236° Southwest  Level Estimated
Wed 09:27:00 PM 31.5648 131.5576 236° Southwest  Level Estimated
Wed 09:28:00 PM 31.4989 131.4430 236° Southwest  Level Estimated
Wed 09:29:00 PM 31.4330 131.3285 236° Southwest  Level Estimated
Wed 09:30:00 PM 31.3670 131.2142 236° Southwest  Level Estimated
Wed 09:31:00 PM 31.3008 131.1000 236° Southwest  Level Estimated
Wed 09:32:00 PM 31.2346 130.9860 236° Southwest  Level Estimated
Wed 09:33:00 PM 31.1682 130.8721 236° Southwest  Level Estimated
Wed 09:34:00 PM 31.1018 130.7585 236° Southwest  Level Estimated
Wed 09:35:00 PM 31.0353 130.6449 236° Southwest  Level Estimated
Wed 09:36:00 PM 30.9686 130.5316 236° Southwest  Level Estimated
Wed 09:37:00 PM 30.9019 130.4184 236° Southwest  Level Estimated
Wed 09:38:00 PM 30.8351 130.3053 235° Southwest  Level Estimated
Wed 09:39:00 PM 30.7681 130.1924 235° Southwest  Level Estimated
Wed 09:40:00 PM 30.7011 130.0797 235° Southwest  Level Estimated
Wed 09:41:00 PM 30.6339 129.9671 235° Southwest  Level Estimated
Wed 09:42:00 PM 30.5667 129.8547 235° Southwest  Level Estimated
Wed 09:43:00 PM 30.4994 129.7424 235° Southwest  Level Estimated
Wed 09:44:00 PM 30.4320 129.6303 235° Southwest  Level Estimated
Wed 09:45:00 PM 30.3645 129.5183 235° Southwest  Level Estimated
Wed 09:46:00 PM 30.2968 129.4065 235° Southwest  Level Estimated
Wed 09:47:00 PM 30.2291 129.2949 235° Southwest  Level Estimated
Wed 09:48:00 PM 30.1613 129.1834 235° Southwest  Level Estimated
Wed 09:49:00 PM 30.0934 129.0720 235° Southwest  Level Estimated
Wed 09:50:00 PM 30.0254 128.9608 235° Southwest  Level Estimated
Wed 09:51:00 PM 29.9574 128.8498 235° Southwest  Level Estimated
Wed 09:52:00 PM 29.8892 128.7389 235° Southwest  Level Estimated
Wed 09:53:00 PM 29.8209 128.6282 235° Southwest  Level Estimated
Wed 09:54:00 PM 29.7526 128.5176 235° Southwest  Level Estimated
Wed 09:55:00 PM 29.6841 128.4072 235° Southwest  Level Estimated
Wed 09:56:00 PM 29.6156 128.2969 234° Southwest  Level Estimated
Wed 09:57:00 PM 29.5469 128.1867 234° Southwest  Level Estimated
Wed 09:58:00 PM 29.4782 128.0768 234° Southwest  Level Estimated
Wed 09:59:00 PM 29.4094 127.9669 234° Southwest  Level Estimated
Wed 10:00:00 PM 29.3405 127.8572 234° Southwest  Level Estimated
Wed 10:01:00 PM 29.2715 127.7477 234° Southwest  Level Estimated
Wed 10:02:00 PM 29.2024 127.6383 234° Southwest  Level Estimated
Wed 10:03:00 PM 29.1332 127.5291 234° Southwest  Level Estimated
Wed 10:04:00 PM 29.0640 127.4200 234° Southwest  Level Estimated
Wed 10:05:00 PM 28.9946 127.3110 234° Southwest  Level Estimated
Wed 10:06:00 PM 28.9252 127.2022 234° Southwest  Level Estimated
Wed 10:07:00 PM 28.8557 127.0936 234° Southwest  Level Estimated
Wed 10:08:00 PM 28.7861 126.9851 234° Southwest  Level Estimated
Wed 10:09:00 PM 28.7164 126.8767 234° Southwest  Level Estimated
Wed 10:10:00 PM 28.6466 126.7685 234° Southwest  Level Estimated
Wed 10:11:00 PM 28.5767 126.6604 234° Southwest  Level Estimated
Wed 10:12:00 PM 28.5067 126.5525 234° Southwest  Level Estimated
Wed 10:13:00 PM 28.4367 126.4447 234° Southwest  Level Estimated
Wed 10:14:00 PM 28.3666 126.3370 234° Southwest  Level Estimated
Wed 10:15:00 PM 28.2964 126.2295 233° Southwest  Level Estimated
Wed 10:16:00 PM 28.2261 126.1222 233° Southwest  Level Estimated
Wed 10:17:00 PM 28.1557 126.0149 233° Southwest  Level Estimated
Wed 10:18:00 PM 28.0852 125.9079 233° Southwest  Level Estimated
Wed 10:19:00 PM 28.0147 125.8009 233° Southwest  Level Estimated
Wed 10:20:00 PM 27.9440 125.6941 233° Southwest  Level Estimated
Wed 10:21:00 PM 27.8734 125.5875 233° Southwest  Level Estimated
Wed 10:22:00 PM 27.8025 125.4809 233° Southwest  Level Estimated
Wed 10:23:00 PM 27.7317 125.3745 233° Southwest  Level Estimated
Wed 10:24:00 PM 27.6607 125.2683 233° Southwest  Level Estimated
Wed 10:25:00 PM 27.5897 125.1622 233° Southwest  Level Estimated
Wed 10:26:00 PM 27.5186 125.0562 233° Southwest  Level Estimated
Wed 10:27:00 PM 27.4474 124.9504 233° Southwest  Level Estimated
Wed 10:28:00 PM 27.3761 124.8447 233° Southwest  Level Estimated
Wed 10:29:00 PM 27.3048 124.7392 233° Southwest  Level Estimated
Wed 10:30:00 PM 27.2333 124.6337 233° Southwest  Level Estimated
Wed 10:31:00 PM 27.1618 124.5284 233° Southwest  Level Estimated
Wed 10:32:00 PM 27.0902 124.4233 233° Southwest  Level Estimated
Wed 10:33:00 PM 27.0185 124.3183 233° Southwest  Level Estimated
Wed 10:34:00 PM 26.9468 124.2134 233° Southwest  Level Estimated
Wed 10:35:00 PM 26.8750 124.1086 232° Southwest  Level Estimated
Wed 10:36:00 PM 26.8031 124.0040 232° Southwest  Level Estimated
Wed 10:37:00 PM 26.7311 123.8995 232° Southwest  Level Estimated
Wed 10:38:00 PM 26.6590 123.7952 232° Southwest  Level Estimated
Wed 10:39:00 PM 26.5869 123.6909 232° Southwest  Level Estimated
Wed 10:40:00 PM 26.5147 123.5869 232° Southwest  Level Estimated
Wed 10:41:00 PM 26.4424 123.4829 232° Southwest  Level Estimated
Wed 10:42:00 PM 26.3701 123.3791 232° Southwest  Level Estimated
Wed 10:43:00 PM 26.2976 123.2754 232° Southwest  Level Estimated
Wed 10:44:00 PM 26.2251 123.1718 232° Southwest  Level Estimated
Wed 10:45:00 PM 26.1525 123.0684 232° Southwest  Level Estimated
Wed 10:46:00 PM 26.0799 122.9650 232° Southwest  Level Estimated
Wed 10:47:00 PM 26.0071 122.8619 232° Southwest  Level Estimated
Wed 10:48:00 PM 25.9343 122.7588 232° Southwest  Level Estimated
Wed 10:49:00 PM 25.8615 122.6559 232° Southwest  Level Estimated
Wed 10:50:00 PM 25.7885 122.5531 232° Southwest  Level Estimated
Wed 10:51:00 PM 25.7155 122.4504 232° Southwest  Level Estimated
Wed 10:52:00 PM 25.6424 122.3479 232° Southwest  Level Estimated
Wed 10:53:00 PM 25.5693 122.2454 232° Southwest  Level Estimated
Wed 10:54:00 PM 25.4960 122.1431 232° Southwest  Level Estimated
Wed 10:55:00 PM 25.4227 122.0410 232° Southwest  Level Estimated
Wed 10:56:00 PM 25.3493 121.9389 232° Southwest  Level Estimated
Wed 10:57:00 PM 25.2759 121.8370 231° Southwest  Level Estimated
Wed 10:58:00 PM 25.2024 121.7352 231° Southwest  Level Estimated
Wed 10:59:00 PM 25.1288 121.6335 231° Southwest  Level Estimated
Wed 11:00:00 PM 25.0694 121.5517 231° Southwest  Level Estimated
Wed 11:01:00 PM 25.0694 121.5517 North  Level Estimated
Wed 11:02:00 PM 25.0694 121.5517 North  Level Estimated
Wed 11:03:00 PM 25.0694 121.5517 North  Level Estimated
Wed 11:04:00 PM 25.0694 121.5517 North  Level Estimated
Wed 11:05:00 PM 25.0694 121.5517 North  Level Estimated
Wed 11:06:00 PM 25.0694 121.5517 North  Level Estimated
Wed 11:07:00 PM 25.0694 121.5517 North  Level Estimated
Wed 11:08:00 PM 25.0694 121.5517 North  Level Estimated
Wed 11:09:00 PM 25.0694 121.5517 North  Level Estimated
Wed 11:10:00 PM 25.0694 121.5517 North  Level Estimated
Wed 11:11:00 PM 25.0694 121.5517 North  Level Estimated

Login

Don't have an account? Register now (free) for customized features, flight alerts, and more!